sensor_id;sensor_type;location;lat;lon;timestamp;temperature;humidity
11239;DHT22;5677;48.488;13.436;2023-05-07T00:01:18;17.10;50.30
11239;DHT22;5677;48.488;13.436;2023-05-07T00:03:45;17.10;50.20
11239;DHT22;5677;48.488;13.436;2023-05-07T00:06:12;17.10;50.20
11239;DHT22;5677;48.488;13.436;2023-05-07T00:08:39;17.10;50.20
11239;DHT22;5677;48.488;13.436;2023-05-07T00:11:07;17.10;50.20
11239;DHT22;5677;48.488;13.436;2023-05-07T00:13:34;17.10;50.40
11239;DHT22;5677;48.488;13.436;2023-05-07T00:16:01;17.10;50.30
11239;DHT22;5677;48.488;13.436;2023-05-07T00:18:28;17.10;50.30
11239;DHT22;5677;48.488;13.436;2023-05-07T00:20:55;17.10;50.30
11239;DHT22;5677;48.488;13.436;2023-05-07T00:23:22;17.10;50.30
11239;DHT22;5677;48.488;13.436;2023-05-07T00:25:49;17.10;50.30
11239;DHT22;5677;48.488;13.436;2023-05-07T00:28:17;17.10;50.30
11239;DHT22;5677;48.488;13.436;2023-05-07T00:30:44;17.10;50.30
11239;DHT22;5677;48.488;13.436;2023-05-07T00:33:10;17.10;50.30
11239;DHT22;5677;48.488;13.436;2023-05-07T00:35:37;17.00;50.90
11239;DHT22;5677;48.488;13.436;2023-05-07T00:38:04;17.10;50.30
11239;DHT22;5677;48.488;13.436;2023-05-07T00:40:30;17.10;50.30
11239;DHT22;5677;48.488;13.436;2023-05-07T00:42:57;17.10;50.30
11239;DHT22;5677;48.488;13.436;2023-05-07T00:45:27;17.00;50.20
11239;DHT22;5677;48.488;13.436;2023-05-07T00:47:54;17.00;50.20
11239;DHT22;5677;48.488;13.436;2023-05-07T00:50:21;17.00;50.20
11239;DHT22;5677;48.488;13.436;2023-05-07T00:52:49;17.00;50.20
11239;DHT22;5677;48.488;13.436;2023-05-07T00:55:15;17.00;50.20
11239;DHT22;5677;48.488;13.436;2023-05-07T00:57:42;17.00;50.30
11239;DHT22;5677;48.488;13.436;2023-05-07T01:00:11;17.00;50.20
11239;DHT22;5677;48.488;13.436;2023-05-07T01:02:39;17.00;50.20
11239;DHT22;5677;48.488;13.436;2023-05-07T01:05:09;17.00;50.30
11239;DHT22;5677;48.488;13.436;2023-05-07T01:07:37;17.00;50.30
11239;DHT22;5677;48.488;13.436;2023-05-07T01:10:07;17.00;50.20
11239;DHT22;5677;48.488;13.436;2023-05-07T01:12:35;17.00;50.20
11239;DHT22;5677;48.488;13.436;2023-05-07T01:15:04;17.00;50.30
11239;DHT22;5677;48.488;13.436;2023-05-07T01:17:33;17.00;50.20
11239;DHT22;5677;48.488;13.436;2023-05-07T01:20:02;17.00;50.20
11239;DHT22;5677;48.488;13.436;2023-05-07T01:22:32;17.00;50.30
11239;DHT22;5677;48.488;13.436;2023-05-07T01:25:00;17.00;51.00
11239;DHT22;5677;48.488;13.436;2023-05-07T01:27:27;16.90;50.30
11239;DHT22;5677;48.488;13.436;2023-05-07T01:29:54;17.00;50.30
11239;DHT22;5677;48.488;13.436;2023-05-07T01:32:26;17.00;50.30
11239;DHT22;5677;48.488;13.436;2023-05-07T01:34:54;17.00;50.30
11239;DHT22;5677;48.488;13.436;2023-05-07T01:37:21;17.00;50.30
11239;DHT22;5677;48.488;13.436;2023-05-07T01:39:50;16.90;50.30
11239;DHT22;5677;48.488;13.436;2023-05-07T01:42:17;16.90;50.30
11239;DHT22;5677;48.488;13.436;2023-05-07T01:44:44;17.00;50.30
11239;DHT22;5677;48.488;13.436;2023-05-07T01:47:11;16.90;50.30
11239;DHT22;5677;48.488;13.436;2023-05-07T01:49:39;16.90;50.30
11239;DHT22;5677;48.488;13.436;2023-05-07T01:52:06;17.00;50.30
11239;DHT22;5677;48.488;13.436;2023-05-07T01:54:32;17.00;50.30
11239;DHT22;5677;48.488;13.436;2023-05-07T01:57:01;16.90;50.30
11239;DHT22;5677;48.488;13.436;2023-05-07T01:59:27;17.00;50.30
11239;DHT22;5677;48.488;13.436;2023-05-07T02:01:54;16.90;50.30
11239;DHT22;5677;48.488;13.436;2023-05-07T02:04:21;16.90;50.40
11239;DHT22;5677;48.488;13.436;2023-05-07T02:06:48;16.90;50.30
11239;DHT22;5677;48.488;13.436;2023-05-07T02:09:14;16.90;50.30
11239;DHT22;5677;48.488;13.436;2023-05-07T02:11:41;16.90;50.30
11239;DHT22;5677;48.488;13.436;2023-05-07T02:14:09;16.90;50.30
11239;DHT22;5677;48.488;13.436;2023-05-07T02:16:36;16.90;50.30
11239;DHT22;5677;48.488;13.436;2023-05-07T02:19:03;16.90;50.30
11239;DHT22;5677;48.488;13.436;2023-05-07T02:21:30;16.90;50.30
11239;DHT22;5677;48.488;13.436;2023-05-07T02:23:57;16.90;50.40
11239;DHT22;5677;48.488;13.436;2023-05-07T02:26:24;16.90;50.30
11239;DHT22;5677;48.488;13.436;2023-05-07T02:28:51;16.90;50.30
11239;DHT22;5677;48.488;13.436;2023-05-07T02:31:20;16.90;50.40
11239;DHT22;5677;48.488;13.436;2023-05-07T02:33:47;16.90;50.40
11239;DHT22;5677;48.488;13.436;2023-05-07T02:36:13;16.90;50.40
11239;DHT22;5677;48.488;13.436;2023-05-07T02:38:40;16.90;50.40
11239;DHT22;5677;48.488;13.436;2023-05-07T02:41:07;16.90;50.30
11239;DHT22;5677;48.488;13.436;2023-05-07T02:43:34;16.90;50.40
11239;DHT22;5677;48.488;13.436;2023-05-07T02:46:01;16.90;50.40
11239;DHT22;5677;48.488;13.436;2023-05-07T02:48:30;16.90;50.40
11239;DHT22;5677;48.488;13.436;2023-05-07T02:50:57;16.90;50.40
11239;DHT22;5677;48.488;13.436;2023-05-07T02:53:24;16.90;50.40
11239;DHT22;5677;48.488;13.436;2023-05-07T02:55:52;16.80;50.30
11239;DHT22;5677;48.488;13.436;2023-05-07T02:58:19;16.90;50.40
11239;DHT22;5677;48.488;13.436;2023-05-07T03:00:46;16.80;50.20
11239;DHT22;5677;48.488;13.436;2023-05-07T03:03:13;16.80;50.30
11239;DHT22;5677;48.488;13.436;2023-05-07T03:05:41;16.80;50.20
11239;DHT22;5677;48.488;13.436;2023-05-07T03:08:08;16.80;50.30
11239;DHT22;5677;48.488;13.436;2023-05-07T03:10:35;16.80;50.30
11239;DHT22;5677;48.488;13.436;2023-05-07T03:13:02;16.80;50.30
11239;DHT22;5677;48.488;13.436;2023-05-07T03:15:29;16.80;50.30
11239;DHT22;5677;48.488;13.436;2023-05-07T03:17:56;16.80;50.30
11239;DHT22;5677;48.488;13.436;2023-05-07T03:20:23;16.80;50.30
11239;DHT22;5677;48.488;13.436;2023-05-07T03:22:51;16.80;50.30
11239;DHT22;5677;48.488;13.436;2023-05-07T03:25:18;16.80;50.30
11239;DHT22;5677;48.488;13.436;2023-05-07T03:27:45;16.80;50.30
11239;DHT22;5677;48.488;13.436;2023-05-07T03:30:12;16.80;50.30
11239;DHT22;5677;48.488;13.436;2023-05-07T03:32:39;16.80;50.40
11239;DHT22;5677;48.488;13.436;2023-05-07T03:35:06;16.80;50.30
11239;DHT22;5677;48.488;13.436;2023-05-07T03:37:33;16.80;50.30
11239;DHT22;5677;48.488;13.436;2023-05-07T03:40:01;16.80;50.30
11239;DHT22;5677;48.488;13.436;2023-05-07T03:42:29;16.80;50.30
11239;DHT22;5677;48.488;13.436;2023-05-07T03:44:55;16.80;50.30
11239;DHT22;5677;48.488;13.436;2023-05-07T03:47:22;16.80;50.30
11239;DHT22;5677;48.488;13.436;2023-05-07T03:49:49;16.80;50.30
11239;DHT22;5677;48.488;13.436;2023-05-07T03:52:18;16.80;50.30
11239;DHT22;5677;48.488;13.436;2023-05-07T03:54:49;16.80;50.30
11239;DHT22;5677;48.488;13.436;2023-05-07T03:57:17;16.80;50.30
11239;DHT22;5677;48.488;13.436;2023-05-07T03:59:44;16.80;50.30
11239;DHT22;5677;48.488;13.436;2023-05-07T04:02:10;16.80;50.30
11239;DHT22;5677;48.488;13.436;2023-05-07T04:04:37;16.80;50.20
11239;DHT22;5677;48.488;13.436;2023-05-07T04:07:04;16.80;50.30
11239;DHT22;5677;48.488;13.436;2023-05-07T04:09:31;16.70;50.30
11239;DHT22;5677;48.488;13.436;2023-05-07T04:11:57;16.80;50.30
11239;DHT22;5677;48.488;13.436;2023-05-07T04:14:25;16.80;50.30
11239;DHT22;5677;48.488;13.436;2023-05-07T04:16:52;16.80;50.30
11239;DHT22;5677;48.488;13.436;2023-05-07T04:19:19;16.80;50.30
11239;DHT22;5677;48.488;13.436;2023-05-07T04:21:46;16.80;50.30
11239;DHT22;5677;48.488;13.436;2023-05-07T04:24:12;16.80;50.30
11239;DHT22;5677;48.488;13.436;2023-05-07T04:26:39;16.80;50.30
11239;DHT22;5677;48.488;13.436;2023-05-07T04:29:06;16.80;50.30
11239;DHT22;5677;48.488;13.436;2023-05-07T04:31:34;16.80;50.30
11239;DHT22;5677;48.488;13.436;2023-05-07T04:34:01;16.80;50.30
11239;DHT22;5677;48.488;13.436;2023-05-07T04:36:28;16.80;50.30
11239;DHT22;5677;48.488;13.436;2023-05-07T04:38:55;16.80;50.30
11239;DHT22;5677;48.488;13.436;2023-05-07T04:41:21;16.70;50.30
11239;DHT22;5677;48.488;13.436;2023-05-07T04:43:48;16.70;50.20
11239;DHT22;5677;48.488;13.436;2023-05-07T04:46:15;16.80;50.30
11239;DHT22;5677;48.488;13.436;2023-05-07T04:48:43;16.80;50.20
11239;DHT22;5677;48.488;13.436;2023-05-07T04:51:09;16.80;50.30
11239;DHT22;5677;48.488;13.436;2023-05-07T04:53:37;16.80;50.30
11239;DHT22;5677;48.488;13.436;2023-05-07T04:56:04;16.80;50.20
11239;DHT22;5677;48.488;13.436;2023-05-07T04:58:31;16.80;50.90
11239;DHT22;5677;48.488;13.436;2023-05-07T05:00:58;16.80;50.20
11239;DHT22;5677;48.488;13.436;2023-05-07T05:03:25;16.80;50.20
11239;DHT22;5677;48.488;13.436;2023-05-07T05:05:53;16.80;50.20
11239;DHT22;5677;48.488;13.436;2023-05-07T05:08:20;16.80;50.20
11239;DHT22;5677;48.488;13.436;2023-05-07T05:10:47;16.80;50.20
11239;DHT22;5677;48.488;13.436;2023-05-07T05:13:15;16.80;50.10
11239;DHT22;5677;48.488;13.436;2023-05-07T05:15:42;16.80;50.10
11239;DHT22;5677;48.488;13.436;2023-05-07T05:18:08;16.80;50.10
11239;DHT22;5677;48.488;13.436;2023-05-07T05:20:35;16.90;50.80
11239;DHT22;5677;48.488;13.436;2023-05-07T05:23:03;16.90;50.10
11239;DHT22;5677;48.488;13.436;2023-05-07T05:25:31;16.90;50.00
11239;DHT22;5677;48.488;13.436;2023-05-07T05:27:58;16.90;50.00
11239;DHT22;5677;48.488;13.436;2023-05-07T05:30:24;16.90;49.90
11239;DHT22;5677;48.488;13.436;2023-05-07T05:32:51;16.90;49.90
11239;DHT22;5677;48.488;13.436;2023-05-07T05:35:18;16.90;49.90
11239;DHT22;5677;48.488;13.436;2023-05-07T05:37:44;17.00;49.80
11239;DHT22;5677;48.488;13.436;2023-05-07T05:40:13;17.00;49.70
11239;DHT22;5677;48.488;13.436;2023-05-07T05:42:39;17.00;49.70
11239;DHT22;5677;48.488;13.436;2023-05-07T05:45:08;17.00;49.70
11239;DHT22;5677;48.488;13.436;2023-05-07T05:47:34;17.00;49.60
11239;DHT22;5677;48.488;13.436;2023-05-07T05:50:01;17.10;49.70
11239;DHT22;5677;48.488;13.436;2023-05-07T05:52:28;17.10;49.60
11239;DHT22;5677;48.488;13.436;2023-05-07T05:54:55;17.10;49.60
11239;DHT22;5677;48.488;13.436;2023-05-07T05:57:23;17.10;49.60
11239;DHT22;5677;48.488;13.436;2023-05-07T05:59:50;17.10;49.60
11239;DHT22;5677;48.488;13.436;2023-05-07T06:02:17;17.10;50.30
11239;DHT22;5677;48.488;13.436;2023-05-07T06:04:44;17.10;49.50
11239;DHT22;5677;48.488;13.436;2023-05-07T06:07:10;17.20;49.50
11239;DHT22;5677;48.488;13.436;2023-05-07T06:09:37;17.20;49.40
11239;DHT22;5677;48.488;13.436;2023-05-07T06:12:04;17.20;49.50
11239;DHT22;5677;48.488;13.436;2023-05-07T06:14:32;17.20;49.40
11239;DHT22;5677;48.488;13.436;2023-05-07T06:16:59;17.20;49.40
11239;DHT22;5677;48.488;13.436;2023-05-07T06:19:26;17.30;49.50
11239;DHT22;5677;48.488;13.436;2023-05-07T06:21:53;17.30;49.50
11239;DHT22;5677;48.488;13.436;2023-05-07T06:24:21;17.30;49.50
11239;DHT22;5677;48.488;13.436;2023-05-07T06:26:48;17.30;49.40
11239;DHT22;5677;48.488;13.436;2023-05-07T06:29:15;17.30;49.40
11239;DHT22;5677;48.488;13.436;2023-05-07T06:31:43;17.40;49.40
11239;DHT22;5677;48.488;13.436;2023-05-07T06:34:10;17.40;49.40
11239;DHT22;5677;48.488;13.436;2023-05-07T06:36:39;17.40;49.30
11239;DHT22;5677;48.488;13.436;2023-05-07T06:39:06;17.40;49.30
11239;DHT22;5677;48.488;13.436;2023-05-07T06:41:33;17.40;49.20
11239;DHT22;5677;48.488;13.436;2023-05-07T06:44:00;17.40;49.10
11239;DHT22;5677;48.488;13.436;2023-05-07T06:46:27;17.50;49.10
11239;DHT22;5677;48.488;13.436;2023-05-07T06:48:56;17.50;49.00
11239;DHT22;5677;48.488;13.436;2023-05-07T06:51:23;17.50;48.90
11239;DHT22;5677;48.488;13.436;2023-05-07T06:53:49;17.50;48.80
11239;DHT22;5677;48.488;13.436;2023-05-07T06:56:16;17.50;48.80
11239;DHT22;5677;48.488;13.436;2023-05-07T06:58:43;17.60;48.80
11239;DHT22;5677;48.488;13.436;2023-05-07T07:01:10;17.60;48.70
11239;DHT22;5677;48.488;13.436;2023-05-07T07:03:36;17.60;48.60
11239;DHT22;5677;48.488;13.436;2023-05-07T07:06:05;17.60;48.60
11239;DHT22;5677;48.488;13.436;2023-05-07T07:08:31;17.70;48.60
11239;DHT22;5677;48.488;13.436;2023-05-07T07:10:58;17.70;48.60
11239;DHT22;5677;48.488;13.436;2023-05-07T07:13:25;17.70;48.50
11239;DHT22;5677;48.488;13.436;2023-05-07T07:15:52;17.70;48.50
11239;DHT22;5677;48.488;13.436;2023-05-07T07:18:19;17.80;48.50
11239;DHT22;5677;48.488;13.436;2023-05-07T07:20:46;17.80;48.40
11239;DHT22;5677;48.488;13.436;2023-05-07T07:23:14;17.80;48.30
11239;DHT22;5677;48.488;13.436;2023-05-07T07:25:42;17.80;48.30
11239;DHT22;5677;48.488;13.436;2023-05-07T07:28:08;17.80;48.30
11239;DHT22;5677;48.488;13.436;2023-05-07T07:30:36;17.80;48.30
11239;DHT22;5677;48.488;13.436;2023-05-07T07:33:03;17.80;48.30
11239;DHT22;5677;48.488;13.436;2023-05-07T07:35:30;17.80;48.30
11239;DHT22;5677;48.488;13.436;2023-05-07T07:37:57;17.80;48.20
11239;DHT22;5677;48.488;13.436;2023-05-07T07:40:25;17.80;48.20
11239;DHT22;5677;48.488;13.436;2023-05-07T07:42:52;17.80;48.10
11239;DHT22;5677;48.488;13.436;2023-05-07T07:45:20;17.80;48.10
11239;DHT22;5677;48.488;13.436;2023-05-07T07:47:46;17.90;48.20
11239;DHT22;5677;48.488;13.436;2023-05-07T07:50:13;17.90;48.10
11239;DHT22;5677;48.488;13.436;2023-05-07T07:52:40;17.90;48.80
11239;DHT22;5677;48.488;13.436;2023-05-07T07:55:08;17.90;48.10
11239;DHT22;5677;48.488;13.436;2023-05-07T07:57:36;17.90;48.00
11239;DHT22;5677;48.488;13.436;2023-05-07T08:00:04;17.90;48.10
11239;DHT22;5677;48.488;13.436;2023-05-07T08:02:31;17.90;48.10
11239;DHT22;5677;48.488;13.436;2023-05-07T08:04:58;17.90;48.10
11239;DHT22;5677;48.488;13.436;2023-05-07T08:07:25;17.90;48.00
11239;DHT22;5677;48.488;13.436;2023-05-07T08:09:52;18.00;48.00
11239;DHT22;5677;48.488;13.436;2023-05-07T08:12:18;17.90;48.00
11239;DHT22;5677;48.488;13.436;2023-05-07T08:14:47;18.00;48.00
11239;DHT22;5677;48.488;13.436;2023-05-07T08:17:13;18.00;47.90
11239;DHT22;5677;48.488;13.436;2023-05-07T08:19:41;18.00;47.90
11239;DHT22;5677;48.488;13.436;2023-05-07T08:22:09;18.00;47.90
11239;DHT22;5677;48.488;13.436;2023-05-07T08:24:36;18.00;47.90
11239;DHT22;5677;48.488;13.436;2023-05-07T08:27:03;18.00;47.90
11239;DHT22;5677;48.488;13.436;2023-05-07T08:29:30;18.00;47.90
11239;DHT22;5677;48.488;13.436;2023-05-07T08:31:58;18.00;47.90
11239;DHT22;5677;48.488;13.436;2023-05-07T08:34:24;18.00;47.90
11239;DHT22;5677;48.488;13.436;2023-05-07T08:36:51;18.00;47.90
11239;DHT22;5677;48.488;13.436;2023-05-07T08:39:18;18.10;48.00
11239;DHT22;5677;48.488;13.436;2023-05-07T08:41:45;18.10;48.00
11239;DHT22;5677;48.488;13.436;2023-05-07T08:44:13;18.10;48.00
11239;DHT22;5677;48.488;13.436;2023-05-07T08:46:41;18.10;48.00
11239;DHT22;5677;48.488;13.436;2023-05-07T08:49:10;18.00;47.90
11239;DHT22;5677;48.488;13.436;2023-05-07T08:51:37;18.00;47.90
11239;DHT22;5677;48.488;13.436;2023-05-07T08:54:04;18.10;48.70
11239;DHT22;5677;48.488;13.436;2023-05-07T08:56:32;18.10;48.00
11239;DHT22;5677;48.488;13.436;2023-05-07T08:58:59;18.10;48.00
11239;DHT22;5677;48.488;13.436;2023-05-07T09:01:26;18.10;48.00
11239;DHT22;5677;48.488;13.436;2023-05-07T09:03:53;18.10;48.00
11239;DHT22;5677;48.488;13.436;2023-05-07T09:06:21;18.10;48.00
11239;DHT22;5677;48.488;13.436;2023-05-07T09:08:52;18.10;48.00
11239;DHT22;5677;48.488;13.436;2023-05-07T09:11:20;18.10;48.00
11239;DHT22;5677;48.488;13.436;2023-05-07T09:13:48;18.10;48.00
11239;DHT22;5677;48.488;13.436;2023-05-07T09:16:15;18.10;48.00
11239;DHT22;5677;48.488;13.436;2023-05-07T09:18:42;18.10;48.00
11239;DHT22;5677;48.488;13.436;2023-05-07T09:21:10;18.10;48.00
11239;DHT22;5677;48.488;13.436;2023-05-07T09:23:39;18.10;48.00
11239;DHT22;5677;48.488;13.436;2023-05-07T09:26:06;18.10;48.00
11239;DHT22;5677;48.488;13.436;2023-05-07T09:28:38;18.10;48.00
11239;DHT22;5677;48.488;13.436;2023-05-07T09:31:06;18.10;48.00
11239;DHT22;5677;48.488;13.436;2023-05-07T09:33:33;18.10;48.00
11239;DHT22;5677;48.488;13.436;2023-05-07T09:36:03;18.10;48.00
11239;DHT22;5677;48.488;13.436;2023-05-07T09:38:31;18.10;48.00
11239;DHT22;5677;48.488;13.436;2023-05-07T09:41:04;18.10;48.00
11239;DHT22;5677;48.488;13.436;2023-05-07T09:43:34;18.10;48.10
11239;DHT22;5677;48.488;13.436;2023-05-07T09:46:03;18.20;48.00
11239;DHT22;5677;48.488;13.436;2023-05-07T09:48:32;18.20;48.10
11239;DHT22;5677;48.488;13.436;2023-05-07T09:51:02;18.10;48.10
11239;DHT22;5677;48.488;13.436;2023-05-07T09:53:33;18.10;48.10
11239;DHT22;5677;48.488;13.436;2023-05-07T09:56:02;18.20;48.10
11239;DHT22;5677;48.488;13.436;2023-05-07T09:58:30;18.20;48.10
11239;DHT22;5677;48.488;13.436;2023-05-07T10:00:58;18.20;48.10
11239;DHT22;5677;48.488;13.436;2023-05-07T10:03:27;18.10;48.20
11239;DHT22;5677;48.488;13.436;2023-05-07T10:05:55;18.20;48.20
11239;DHT22;5677;48.488;13.436;2023-05-07T10:08:23;18.20;48.20
11239;DHT22;5677;48.488;13.436;2023-05-07T10:10:49;18.20;48.20
11239;DHT22;5677;48.488;13.436;2023-05-07T10:13:19;18.20;48.20
11239;DHT22;5677;48.488;13.436;2023-05-07T10:15:46;18.10;48.20
11239;DHT22;5677;48.488;13.436;2023-05-07T10:18:14;18.20;48.20
11239;DHT22;5677;48.488;13.436;2023-05-07T10:20:43;18.20;48.20
11239;DHT22;5677;48.488;13.436;2023-05-07T10:23:14;18.20;48.20
11239;DHT22;5677;48.488;13.436;2023-05-07T10:25:43;18.20;48.20
11239;DHT22;5677;48.488;13.436;2023-05-07T10:28:11;18.20;48.20
11239;DHT22;5677;48.488;13.436;2023-05-07T10:30:48;18.20;48.20
11239;DHT22;5677;48.488;13.436;2023-05-07T10:33:23;18.20;48.10
11239;DHT22;5677;48.488;13.436;2023-05-07T10:35:51;18.20;48.10
11239;DHT22;5677;48.488;13.436;2023-05-07T10:38:22;18.20;48.10
11239;DHT22;5677;48.488;13.436;2023-05-07T10:40:48;18.20;48.20
11239;DHT22;5677;48.488;13.436;2023-05-07T10:43:16;18.20;48.20
11239;DHT22;5677;48.488;13.436;2023-05-07T10:46:15;18.30;48.30
11239;DHT22;5677;48.488;13.436;2023-05-07T10:49:09;18.20;48.20
11239;DHT22;5677;48.488;13.436;2023-05-07T10:51:38;18.20;48.30
11239;DHT22;5677;48.488;13.436;2023-05-07T10:54:19;18.20;48.30
11239;DHT22;5677;48.488;13.436;2023-05-07T10:56:45;18.20;48.30
11239;DHT22;5677;48.488;13.436;2023-05-07T10:59:33;18.20;48.30
11239;DHT22;5677;48.488;13.436;2023-05-07T11:02:02;18.20;48.30
11239;DHT22;5677;48.488;13.436;2023-05-07T11:04:31;18.20;48.30
11239;DHT22;5677;48.488;13.436;2023-05-07T11:07:23;18.20;48.30
11239;DHT22;5677;48.488;13.436;2023-05-07T11:10:02;18.20;48.30
11239;DHT22;5677;48.488;13.436;2023-05-07T11:15:35;18.20;48.40
11239;DHT22;5677;48.488;13.436;2023-05-07T11:18:04;18.20;48.40
11239;DHT22;5677;48.488;13.436;2023-05-07T11:20:49;18.20;48.40
11239;DHT22;5677;48.488;13.436;2023-05-07T11:23:54;18.20;48.40
11239;DHT22;5677;48.488;13.436;2023-05-07T11:26:22;18.20;48.40
11239;DHT22;5677;48.488;13.436;2023-05-07T11:28:49;18.20;48.50
11239;DHT22;5677;48.488;13.436;2023-05-07T11:31:21;18.20;48.40
11239;DHT22;5677;48.488;13.436;2023-05-07T11:33:49;18.20;48.50
11239;DHT22;5677;48.488;13.436;2023-05-07T11:36:17;18.20;48.50
11239;DHT22;5677;48.488;13.436;2023-05-07T11:38:44;18.20;48.50
11239;DHT22;5677;48.488;13.436;2023-05-07T11:41:11;18.20;48.60
11239;DHT22;5677;48.488;13.436;2023-05-07T11:43:40;18.20;48.70
11239;DHT22;5677;48.488;13.436;2023-05-07T11:46:20;18.20;48.60
11239;DHT22;5677;48.488;13.436;2023-05-07T11:48:48;18.20;48.70
11239;DHT22;5677;48.488;13.436;2023-05-07T11:51:19;18.20;48.70
11239;DHT22;5677;48.488;13.436;2023-05-07T11:53:46;18.20;48.70
11239;DHT22;5677;48.488;13.436;2023-05-07T11:56:13;18.20;48.80
11239;DHT22;5677;48.488;13.436;2023-05-07T11:58:41;18.20;48.70
11239;DHT22;5677;48.488;13.436;2023-05-07T12:01:10;18.20;48.70
11239;DHT22;5677;48.488;13.436;2023-05-07T12:03:39;18.20;48.70
11239;DHT22;5677;48.488;13.436;2023-05-07T12:06:09;18.20;48.60
11239;DHT22;5677;48.488;13.436;2023-05-07T12:08:37;18.20;48.60
11239;DHT22;5677;48.488;13.436;2023-05-07T12:11:07;18.20;48.60
11239;DHT22;5677;48.488;13.436;2023-05-07T12:13:33;18.20;48.60
11239;DHT22;5677;48.488;13.436;2023-05-07T12:16:01;18.20;48.60
11239;DHT22;5677;48.488;13.436;2023-05-07T12:18:29;18.30;48.70
11239;DHT22;5677;48.488;13.436;2023-05-07T12:20:56;18.20;48.60
11239;DHT22;5677;48.488;13.436;2023-05-07T12:23:25;18.30;48.70
11239;DHT22;5677;48.488;13.436;2023-05-07T12:25:52;18.30;48.60
11239;DHT22;5677;48.488;13.436;2023-05-07T12:28:19;18.30;48.60
11239;DHT22;5677;48.488;13.436;2023-05-07T12:30:47;18.30;48.60
11239;DHT22;5677;48.488;13.436;2023-05-07T12:33:16;18.30;48.60
11239;DHT22;5677;48.488;13.436;2023-05-07T12:35:43;18.30;48.60
11239;DHT22;5677;48.488;13.436;2023-05-07T12:38:11;18.30;48.60
11239;DHT22;5677;48.488;13.436;2023-05-07T12:40:40;18.20;48.60
11239;DHT22;5677;48.488;13.436;2023-05-07T12:43:15;18.30;48.60
11239;DHT22;5677;48.488;13.436;2023-05-07T12:45:43;18.30;48.70
11239;DHT22;5677;48.488;13.436;2023-05-07T12:48:11;18.20;48.70
11239;DHT22;5677;48.488;13.436;2023-05-07T12:50:38;18.20;48.70
11239;DHT22;5677;48.488;13.436;2023-05-07T12:53:05;18.20;48.70
11239;DHT22;5677;48.488;13.436;2023-05-07T12:55:42;18.20;48.80
11239;DHT22;5677;48.488;13.436;2023-05-07T12:58:15;18.20;49.50
11239;DHT22;5677;48.488;13.436;2023-05-07T13:00:42;18.20;48.80
11239;DHT22;5677;48.488;13.436;2023-05-07T13:03:10;18.20;48.80
11239;DHT22;5677;48.488;13.436;2023-05-07T13:05:37;18.20;48.80
11239;DHT22;5677;48.488;13.436;2023-05-07T13:08:04;18.20;48.80
11239;DHT22;5677;48.488;13.436;2023-05-07T13:10:31;18.20;48.80
11239;DHT22;5677;48.488;13.436;2023-05-07T13:12:59;18.20;48.80
11239;DHT22;5677;48.488;13.436;2023-05-07T13:15:26;18.20;48.90
11239;DHT22;5677;48.488;13.436;2023-05-07T13:17:53;18.20;48.90
11239;DHT22;5677;48.488;13.436;2023-05-07T13:20:19;18.20;48.90
11239;DHT22;5677;48.488;13.436;2023-05-07T13:22:46;18.20;48.90
11239;DHT22;5677;48.488;13.436;2023-05-07T13:25:13;18.20;48.90
11239;DHT22;5677;48.488;13.436;2023-05-07T13:27:39;18.20;48.90
11239;DHT22;5677;48.488;13.436;2023-05-07T13:30:08;18.20;49.00
11239;DHT22;5677;48.488;13.436;2023-05-07T13:32:35;18.10;48.90
11239;DHT22;5677;48.488;13.436;2023-05-07T13:35:01;18.10;48.90
11239;DHT22;5677;48.488;13.436;2023-05-07T13:37:28;18.10;48.90
11239;DHT22;5677;48.488;13.436;2023-05-07T13:39:55;18.10;48.90
11239;DHT22;5677;48.488;13.436;2023-05-07T13:42:22;18.10;49.00
11239;DHT22;5677;48.488;13.436;2023-05-07T13:44:48;18.10;49.00
11239;DHT22;5677;48.488;13.436;2023-05-07T13:47:16;18.20;49.00
11239;DHT22;5677;48.488;13.436;2023-05-07T13:49:43;18.10;49.00
11239;DHT22;5677;48.488;13.436;2023-05-07T13:52:10;18.10;49.00
11239;DHT22;5677;48.488;13.436;2023-05-07T13:54:37;18.10;49.00
11239;DHT22;5677;48.488;13.436;2023-05-07T13:57:04;18.10;48.90
11239;DHT22;5677;48.488;13.436;2023-05-07T13:59:30;18.10;48.90
11239;DHT22;5677;48.488;13.436;2023-05-07T14:01:57;18.20;48.90
11239;DHT22;5677;48.488;13.436;2023-05-07T14:04:25;18.20;48.90
11239;DHT22;5677;48.488;13.436;2023-05-07T14:06:52;18.20;48.90
11239;DHT22;5677;48.488;13.436;2023-05-07T14:09:19;18.20;48.90
11239;DHT22;5677;48.488;13.436;2023-05-07T14:11:45;18.20;48.90
11239;DHT22;5677;48.488;13.436;2023-05-07T14:14:13;18.20;48.90
11239;DHT22;5677;48.488;13.436;2023-05-07T14:16:39;18.20;48.90
11239;DHT22;5677;48.488;13.436;2023-05-07T14:19:06;18.20;48.90
11239;DHT22;5677;48.488;13.436;2023-05-07T14:21:34;18.20;48.80
11239;DHT22;5677;48.488;13.436;2023-05-07T14:24:01;18.20;48.90
11239;DHT22;5677;48.488;13.436;2023-05-07T14:26:28;18.20;48.90
11239;DHT22;5677;48.488;13.436;2023-05-07T14:28:54;18.20;48.80
11239;DHT22;5677;48.488;13.436;2023-05-07T14:31:23;18.20;48.90
11239;DHT22;5677;48.488;13.436;2023-05-07T14:33:50;18.20;48.90
11239;DHT22;5677;48.488;13.436;2023-05-07T14:36:17;18.20;48.90
11239;DHT22;5677;48.488;13.436;2023-05-07T14:38:46;18.20;48.90
11239;DHT22;5677;48.488;13.436;2023-05-07T14:41:13;18.20;48.80
11239;DHT22;5677;48.488;13.436;2023-05-07T14:43:40;18.20;48.90
11239;DHT22;5677;48.488;13.436;2023-05-07T14:46:07;18.20;48.80
11239;DHT22;5677;48.488;13.436;2023-05-07T14:48:33;18.20;48.90
11239;DHT22;5677;48.488;13.436;2023-05-07T14:51:00;18.20;48.80
11239;DHT22;5677;48.488;13.436;2023-05-07T14:53:27;18.20;48.90
11239;DHT22;5677;48.488;13.436;2023-05-07T14:55:55;18.20;48.90
11239;DHT22;5677;48.488;13.436;2023-05-07T14:58:22;18.20;48.90
11239;DHT22;5677;48.488;13.436;2023-05-07T15:00:48;18.20;49.00
11239;DHT22;5677;48.488;13.436;2023-05-07T15:03:15;18.20;48.90
11239;DHT22;5677;48.488;13.436;2023-05-07T15:05:42;18.20;48.90
11239;DHT22;5677;48.488;13.436;2023-05-07T15:08:09;18.20;49.00
11239;DHT22;5677;48.488;13.436;2023-05-07T15:10:36;18.20;49.00
11239;DHT22;5677;48.488;13.436;2023-05-07T15:13:07;18.20;48.90
11239;DHT22;5677;48.488;13.436;2023-05-07T15:15:34;18.20;48.90
11239;DHT22;5677;48.488;13.436;2023-05-07T15:18:01;18.20;49.00
11239;DHT22;5677;48.488;13.436;2023-05-07T15:20:28;18.20;49.00
11239;DHT22;5677;48.488;13.436;2023-05-07T15:22:55;18.20;49.00
11239;DHT22;5677;48.488;13.436;2023-05-07T15:25:22;18.10;49.00
11239;DHT22;5677;48.488;13.436;2023-05-07T15:27:49;18.10;49.00
11239;DHT22;5677;48.488;13.436;2023-05-07T15:30:18;18.10;49.10
11239;DHT22;5677;48.488;13.436;2023-05-07T15:32:45;18.10;49.10
11239;DHT22;5677;48.488;13.436;2023-05-07T15:35:12;18.10;49.10
11239;DHT22;5677;48.488;13.436;2023-05-07T15:37:39;18.10;49.10